GIBO2: Ft Gibson Lake, OK

Data processed at Sat Mar 10 2018 23:36


All information presented herein is the property of the government of the United States of America and may be revised or deleted at any time without prior notice.
Dissemination of this information without the expressed written consent of the Public Affairs Office, Tulsa District U.S. Army Corps of Engineers is strictly prohibited.
These data are gathered electronically and, as presented, have not undergone any form of quality control. These data are not guaranteed to be valid or correct.
Go to home page.
Go to station list.

Upstream stations:

Downstream station:
Previous Day
Next Day
Current Day
    
SHEF ID:       GIBO2     Ft Gibson Lake, OK
STATION TYPE:  RESERVOIR
Normal Pool:  Bottom =   551.00, Top =   554.00

               PRECIP ELEVATION   STORAGE   TW-ELEV    INFLOW   RELEASE  AIR-TEMP  WIND-DIRWIND-SPEED REL-HUMID SOLAR-RAD   VOLTAGE  BAT-LOAD
                   in        ft     ac-ft        ft       cfs       cfs         F       deg       mph         %      W/m2      volt      volt
              Ccp-Rev   Ccp-Rev   Ccp-Rev   Ccp-Rev  Regi-Rev  Regi-Rev   Ccp-Rev   Ccp-Rev   Ccp-Rev   Ccp-Rev   Ccp-Rev   Ccp-Rev   Ccp-Rev
(US/Central)
03/08 00:00      0.00    556.42    413278    497.87     15882     26574     36.93    145.10      1.10     73.57      0.00     13.48     13.48
03/08 01:00      0.00    556.33    411397    497.84      4456     18000     37.02     92.10      0.24     76.55      0.00     13.59     13.48
03/08 02:00      0.00    556.15    407635    497.84         0     18000     37.26     16.50      0.06     80.16      0.00     13.60     13.48
03/08 03:00      0.00    556.03    405127    497.85         0     18000     36.25    134.00      0.09     82.77      0.00     13.60     13.48
03/08 04:00      0.00    555.99    404300    497.79         0     18000     34.95    131.30      0.09     87.24      0.00     13.60     13.48
03/08 05:00      0.00    555.90    402500    497.78         0     18000     34.83    345.30      0.12     79.48      0.00     13.60     13.48
03/08 06:00      0.00    555.76    399700    497.78         0     18000     32.41     56.70      0.06     74.72      0.00     13.60     13.48
03/08 07:00      0.00    555.64    397300    497.76      7684     18000     33.40    144.20      0.68     73.93      2.00     13.60     13.48
03/08 08:00      0.00    555.60    396500    496.82     11768     18000     36.25    115.10      0.34     55.61     32.00     13.60     13.48
03/08 09:00      0.00    555.69    398300    496.35     15368     18000     41.43      1.50      1.00     46.40    338.00     13.60     13.48
03/08 10:00      0.00    555.70    398500    496.24     19756     18000     45.72     12.70      0.87     39.50    542.00     13.60     13.48
03/08 11:00      0.00    555.70    398500    496.18     19776     18000     50.43    324.00      0.60     38.16    711.00     13.60     13.07
03/08 12:00      0.00    555.77    399900    496.19     12109     18000     51.08      8.90      0.09     38.46    800.00     13.60     13.48
03/08 13:00      0.00    555.85    401500    496.23      8041     18000     54.18    169.50      0.25     31.20    823.00     13.60     13.48
03/08 14:00      0.00    555.91    402700    496.19      4460     18000     57.79    204.00      0.41     30.34    775.00     13.60     13.48
03/08 15:00      0.00    555.96    403700    496.19        90     18000     59.43    157.60      0.34     23.75    690.00     13.60     13.48
03/08 16:00      0.00    556.03    405127    496.16        72     18000     60.87    146.20      0.81     23.68    541.00     13.60     13.48
03/08 17:00      0.00    556.09    406381    496.19        54     18000     62.19    227.90      0.49     22.04    361.00     13.60     13.48
03/08 18:00      0.00    556.14    407426    496.23        38     18000     60.01    157.10      2.31     23.75    149.00     13.60     13.48
03/08 19:00      0.00    556.12    407008    496.16        19     18000     56.59    150.40      2.57     26.92      7.00     13.60     13.48
03/08 20:00      0.00    555.99    404300    496.14         2     18000     53.94    162.20      2.67     31.80      0.00     13.60     13.48
03/08 21:00      0.00    555.87    401900    496.15         0     18000     54.93    165.60      4.71     28.69      1.00     13.60     13.48
03/08 22:00      0.00    555.81    400700    496.14         0     18000     53.83    160.80      5.34     31.01      0.00     13.60     13.48
03/08 23:00      0.00    555.79    400300    496.16         0     18000     54.05    153.50      8.38     31.86      0.00     13.60     13.48